createdAt,value
2023-04-15T00:00:59.129Z,1006
2023-04-15T00:10:59.203Z,1006
2023-04-15T00:20:59.171Z,1006
2023-04-15T00:30:59.162Z,1006
2023-04-15T00:40:59.176Z,1006
2023-04-15T00:50:59.144Z,1006
2023-04-15T01:00:59.153Z,1006
2023-04-15T01:10:59.095Z,1006
2023-04-15T01:20:59.154Z,1006
2023-04-15T01:30:59.064Z,1006
2023-04-15T01:40:59.105Z,1006
2023-04-15T01:50:59.107Z,1006
2023-04-15T02:00:59.116Z,1006
2023-04-15T02:10:59.102Z,1006
2023-04-15T02:20:59.123Z,1006
2023-04-15T02:30:59.155Z,1006
2023-04-15T02:40:59.119Z,1006
2023-04-15T02:50:59.088Z,1006
2023-04-15T03:00:59.108Z,1006
2023-04-15T03:10:59.093Z,1006
2023-04-15T03:20:59.085Z,1006
2023-04-15T03:30:59.098Z,1006
2023-04-15T03:40:59.066Z,1008
2023-04-15T03:50:59.073Z,1006
2023-04-15T04:00:59.107Z,1006
2023-04-15T04:10:59.089Z,1006
2023-04-15T04:20:59.032Z,1006
2023-04-15T04:30:59.065Z,1008
2023-04-15T04:40:59.034Z,1008
2023-04-15T04:50:59.047Z,1008
2023-04-15T05:00:59.063Z,1008
2023-04-15T05:10:59.057Z,1008
2023-04-15T05:20:59.054Z,1008
2023-04-15T05:30:59.032Z,1008
2023-04-15T05:40:59.038Z,1008
2023-04-15T05:50:59.014Z,1008
2023-04-15T06:00:59.011Z,1008
2023-04-15T06:10:59.015Z,1008
2023-04-15T06:20:59.048Z,1008
2023-04-15T06:30:59.012Z,1008
2023-04-15T06:40:59.076Z,1008
2023-04-15T06:50:59.072Z,1008
2023-04-15T07:00:59.047Z,1008
2023-04-15T07:10:59.033Z,1008
2023-04-15T07:20:59.042Z,1008
2023-04-15T07:30:59.063Z,1008
2023-04-15T07:40:59.044Z,1008
2023-04-15T07:50:59.050Z,1009
2023-04-15T08:00:59.022Z,1009
2023-04-15T08:10:58.997Z,1009
2023-04-15T08:20:59.006Z,1009
2023-04-15T08:30:59.111Z,1009
2023-04-15T08:40:59.010Z,1009
2023-04-15T08:50:58.996Z,1009
2023-04-15T09:00:59.041Z,1009
2023-04-15T09:10:59.033Z,1009
2023-04-15T09:20:58.974Z,1009
2023-04-15T09:30:59.037Z,1009
2023-04-15T09:40:58.998Z,1009
2023-04-15T09:50:58.989Z,1009
2023-04-15T10:00:58.974Z,1009
2023-04-15T10:10:59.019Z,1009
2023-04-15T10:20:58.994Z,1009
2023-04-15T10:30:59.068Z,1009
2023-04-15T10:40:58.957Z,1009
2023-04-15T10:50:59.006Z,1009
2023-04-15T11:00:58.949Z,1009
2023-04-15T11:10:58.977Z,1009
2023-04-15T11:20:58.990Z,1009
2023-04-15T11:30:58.988Z,1009
2023-04-15T11:40:58.982Z,1009
2023-04-15T11:50:58.924Z,1009
2023-04-15T12:00:58.984Z,1009
2023-04-15T12:10:59.031Z,1009
2023-04-15T12:20:58.983Z,1009
2023-04-15T12:30:58.963Z,1009
2023-04-15T12:40:58.970Z,1010
2023-04-15T12:50:58.900Z,1010
2023-04-15T13:00:58.850Z,1010
2023-04-15T13:10:58.865Z,1010
2023-04-15T13:20:58.986Z,1010
2023-04-15T13:30:58.954Z,1010
2023-04-15T13:40:58.954Z,1010
2023-04-15T13:50:58.894Z,1010
2023-04-15T14:00:58.858Z,1010
2023-04-15T14:10:58.963Z,1010
2023-04-15T14:20:58.909Z,1010
2023-04-15T14:30:58.976Z,1010
2023-04-15T14:40:58.912Z,1010
2023-04-15T14:50:58.775Z,1010
2023-04-15T15:00:58.829Z,1010
2023-04-15T15:10:58.836Z,1011
2023-04-15T15:20:58.811Z,1011
2023-04-15T15:30:58.870Z,1011
2023-04-15T15:40:58.788Z,1011
2023-04-15T15:50:58.824Z,1011
2023-04-15T16:01:01.082Z,1011
2023-04-15T16:10:58.799Z,1011
2023-04-15T16:20:58.767Z,1011
2023-04-15T16:30:58.804Z,1011
2023-04-15T16:40:58.825Z,1011
2023-04-15T16:50:58.766Z,1012
2023-04-15T17:00:58.799Z,1012
2023-04-15T17:10:58.765Z,1012
2023-04-15T17:20:58.733Z,1012
2023-04-15T17:30:58.762Z,1012
2023-04-15T17:40:58.769Z,1012
2023-04-15T17:50:58.797Z,1012
2023-04-15T18:00:58.717Z,1013
2023-04-15T18:10:58.743Z,1013
2023-04-15T18:20:58.725Z,1013
2023-04-15T18:30:58.691Z,1013
2023-04-15T18:40:58.692Z,1013
2023-04-15T18:50:58.731Z,1014
2023-04-15T19:00:58.737Z,1014
2023-04-15T19:10:58.688Z,1014
2023-04-15T19:20:58.677Z,1014
2023-04-15T19:30:58.720Z,1014
2023-04-15T19:40:58.707Z,1014
2023-04-15T19:50:58.689Z,1014
2023-04-15T20:00:58.668Z,1014
2023-04-15T20:10:58.684Z,1014
2023-04-15T20:20:58.706Z,1014
2023-04-15T20:30:58.679Z,1015
2023-04-15T20:40:58.698Z,1015
2023-04-15T20:50:58.740Z,1015
2023-04-15T21:00:58.755Z,1015
2023-04-15T21:10:58.703Z,1015
2023-04-15T21:20:58.706Z,1015
2023-04-15T21:30:58.692Z,1015
2023-04-15T21:40:58.684Z,1015
2023-04-15T21:50:58.697Z,1016
2023-04-15T22:00:58.697Z,1016
2023-04-15T22:10:58.697Z,1016
2023-04-15T22:20:58.702Z,1016
2023-04-15T22:30:58.712Z,1016
2023-04-15T22:40:58.719Z,1016
2023-04-15T22:50:58.677Z,1016
2023-04-15T23:00:58.712Z,1016
2023-04-15T23:10:58.721Z,1016
2023-04-15T23:20:58.711Z,1016
2023-04-15T23:31:00.379Z,1016
2023-04-15T23:40:58.738Z,1017
2023-04-15T23:50:58.742Z,1017
